Time;durP1;ratioP1;P1;durP2;ratioP2;P2;SDS_P1;SDS_P2;PMS_P1;PMS_P2;Temp;Humidity;BMP_temperature;BMP_pressure;BME280_temperature;BME280_humidity;BME280_pressure;Samples;Min_cycle;Max_cycle;Signal;HPM_P1;HPM_P2
2021/08/26 00:07:25;;;;;;;3.05;2.85;;;14.80;95.20;;;;;;5075015;28;20078;-68
2021/08/26 00:09:53;;;;;;;3.00;2.80;;;14.80;94.60;;;;;;5074980;28;20424;-67
2021/08/26 00:12:22;;;;;;;2.80;2.70;;;14.90;94.60;;;;;;5074558;28;20024;-68
2021/08/26 00:14:49;;;;;;;2.70;2.60;;;14.90;94.90;;;;;;5074408;28;20045;-66
2021/08/26 00:17:17;;;;;;;2.70;2.60;;;14.70;94.90;;;;;;5074501;28;20032;-66
2021/08/26 00:19:44;;;;;;;2.60;2.50;;;14.80;94.90;;;;;;5073943;28;20025;-67
2021/08/26 00:22:11;;;;;;;2.40;2.30;;;14.80;95.00;;;;;;5072632;28;20017;-67
2021/08/26 00:24:39;;;;;;;2.38;2.28;;;14.90;94.70;;;;;;5073865;28;20366;-67
2021/08/26 00:27:06;;;;;;;2.78;2.22;;;15.10;95.20;;;;;;5073800;28;20016;-66
2021/08/26 00:29:34;;;;;;;2.13;2.03;;;15.30;95.00;;;;;;5074208;28;20036;-67
2021/08/26 00:32:01;;;;;;;2.50;2.30;;;15.40;94.50;;;;;;5073042;28;20025;-67
2021/08/26 00:34:28;;;;;;;2.38;2.28;;;15.40;94.60;;;;;;5072603;28;20032;-67
2021/08/26 00:36:56;;;;;;;2.55;2.30;;;15.70;94.50;;;;;;5073861;28;20388;-68
2021/08/26 00:39:23;;;;;;;2.33;2.20;;;15.50;94.00;;;;;;5074168;28;20016;-67
2021/08/26 00:41:51;;;;;;;2.47;2.28;;;15.40;94.40;;;;;;5073695;28;20021;-67
2021/08/26 00:44:19;;;;;;;2.60;2.40;;;15.60;94.90;;;;;;5073755;28;20074;-67
2021/08/26 00:46:48;;;;;;;2.30;2.10;;;15.70;94.70;;;;;;5073788;28;20082;-67
2021/08/26 00:49:16;;;;;;;2.30;2.20;;;15.70;94.20;;;;;;5073886;28;20029;-67
2021/08/26 00:51:44;;;;;;;2.50;2.40;;;15.70;94.40;;;;;;5073232;28;20021;-67
2021/08/26 00:54:12;;;;;;;2.38;2.28;;;15.80;94.00;;;;;;5073146;28;20017;-68
2021/08/26 00:56:40;;;;;;;2.22;2.00;;;15.90;94.00;;;;;;5071909;28;20028;-68
2021/08/26 00:59:09;;;;;;;2.35;2.03;;;15.90;94.80;;;;;;5072346;28;20021;-67
2021/08/26 01:02:08;;;;;;;2.00;1.90;;;15.80;94.60;;;;;;5072419;28;20021;-67
2021/08/26 01:04:50;;;;;;;2.22;2.10;;;15.90;94.70;;;;;;5073643;28;20021;-68
2021/08/26 01:07:47;;;;;;;2.40;2.30;;;15.90;94.30;;;;;;5073710;28;20021;-67
2021/08/26 01:10:16;;;;;;;2.70;2.50;;;15.70;93.90;;;;;;5070994;28;20036;-68
2021/08/26 01:12:47;;;;;;;2.50;2.30;;;15.80;93.90;;;;;;5073326;28;20029;-67
2021/08/26 01:15:14;;;;;;;2.20;2.10;;;15.90;93.90;;;;;;5071580;28;20433;-68
2021/08/26 01:17:46;;;;;;;2.42;2.30;;;16.10;93.60;;;;;;5073120;28;20582;-68
2021/08/26 01:20:14;;;;;;;2.10;2.10;;;16.00;93.90;;;;;;5071985;28;20017;-68
2021/08/26 01:22:42;;;;;;;2.20;2.10;;;16.10;93.80;;;;;;5073434;28;20025;-67
2021/08/26 01:25:16;;;;;;;2.40;2.40;;;16.20;93.40;;;;;;5073081;28;20020;-67
2021/08/26 01:27:49;;;;;;;2.40;2.35;;;16.20;93.60;;;;;;5073583;28;20030;-68
2021/08/26 01:30:19;;;;;;;2.58;2.47;;;16.50;93.90;;;;;;5073066;28;20028;-67
2021/08/26 01:32:50;;;;;;;2.33;2.22;;;16.50;93.00;;;;;;5073130;28;20021;-67
2021/08/26 01:35:19;;;;;;;2.30;2.15;;;16.80;93.50;;;;;;5073192;28;20024;-66
2021/08/26 01:37:46;;;;;;;2.70;2.60;;;16.70;93.30;;;;;;5072979;28;20025;-66
2021/08/26 01:40:14;;;;;;;2.50;2.40;;;16.70;93.20;;;;;;5071242;28;20048;-66
2021/08/26 01:42:42;;;;;;;2.40;2.30;;;17.00;92.90;;;;;;5072643;28;20427;-66
2021/08/26 01:45:10;;;;;;;2.70;2.60;;;16.90;92.90;;;;;;5073180;28;20021;-65
2021/08/26 01:47:38;;;;;;;2.60;2.50;;;16.90;93.20;;;;;;5073151;28;20020;-67
2021/08/26 01:50:06;;;;;;;2.80;2.70;;;17.20;93.10;;;;;;5073131;28;20430;-66
2021/08/26 01:52:34;;;;;;;2.95;2.80;;;17.30;93.40;;;;;;5072906;28;20027;-67
2021/08/26 01:55:04;;;;;;;3.00;2.90;;;17.60;93.10;;;;;;5072536;28;20412;-66
2021/08/26 01:57:33;;;;;;;2.80;2.70;;;17.60;92.70;;;;;;5072439;28;20052;-66
2021/08/26 02:00:07;;;;;;;2.50;2.40;;;17.80;93.00;;;;;;5072390;28;20027;-67
2021/08/26 02:02:34;;;;;;;2.50;2.40;;;17.80;92.40;;;;;;5072676;28;20051;-68
2021/08/26 02:05:02;;;;;;;2.40;2.30;;;17.80;92.50;;;;;;5072324;28;20025;-66
2021/08/26 02:07:29;;;;;;;2.10;2.10;;;17.80;91.90;;;;;;5072348;28;20112;-66
2021/08/26 02:09:56;;;;;;;2.72;2.50;;;17.80;92.00;;;;;;5070946;28;20035;-66
2021/08/26 02:12:24;;;;;;;2.70;2.60;;;17.70;92.40;;;;;;5072202;28;20052;-64
2021/08/26 02:14:51;;;;;;;2.50;2.40;;;17.60;91.80;;;;;;5072062;28;20123;-65
2021/08/26 02:17:19;;;;;;;2.40;2.30;;;17.80;92.20;;;;;;5072124;28;20132;-64
2021/08/26 02:19:46;;;;;;;2.60;2.50;;;18.00;91.60;;;;;;5072332;28;20044;-66
2021/08/26 02:22:13;;;;;;;2.40;2.30;;;18.00;91.60;;;;;;5072125;28;20070;-65
2021/08/26 02:24:41;;;;;;;2.38;2.28;;;18.20;91.10;;;;;;5072352;28;20422;-65
2021/08/26 02:27:08;;;;;;;2.42;2.33;;;18.40;90.80;;;;;;5075348;28;20055;-66
2021/08/26 02:29:35;;;;;;;2.72;2.60;;;18.20;91.00;;;;;;5075047;28;20024;-66
2021/08/26 02:32:03;;;;;;;2.60;2.50;;;18.50;91.00;;;;;;5074924;28;20025;-66
2021/08/26 02:34:30;;;;;;;2.55;2.45;;;18.60;91.50;;;;;;5074492;28;20032;-66
2021/08/26 02:36:58;;;;;;;2.47;2.30;;;18.80;91.10;;;;;;5075769;28;20038;-66
2021/08/26 02:39:25;;;;;;;2.40;2.30;;;18.40;91.00;;;;;;5075741;28;20061;-65
2021/08/26 02:41:53;;;;;;;2.53;2.40;;;18.30;90.70;;;;;;5075639;28;20384;-65
2021/08/26 02:44:20;;;;;;;2.20;2.10;;;18.20;91.50;;;;;;5074310;28;20031;-65
2021/08/26 02:46:47;;;;;;;2.60;2.40;;;18.10;91.00;;;;;;5075753;28;20025;-66
2021/08/26 02:49:15;;;;;;;2.30;2.20;;;18.10;91.40;;;;;;5075795;28;20028;-66
2021/08/26 02:51:42;;;;;;;2.55;2.40;;;18.30;90.90;;;;;;5075650;28;20048;-66
2021/08/26 02:54:09;;;;;;;2.60;2.55;;;18.40;91.10;;;;;;5075495;28;20091;-66
2021/08/26 02:56:37;;;;;;;3.50;3.20;;;18.30;90.70;;;;;;5075532;28;20032;-67
2021/08/26 02:59:04;;;;;;;2.50;2.33;;;18.40;92.20;;;;;;5075530;28;20020;-67
2021/08/26 03:01:31;;;;;;;2.40;2.30;;;18.30;91.30;;;;;;5075484;28;20032;-67
2021/08/26 03:03:59;;;;;;;2.40;2.30;;;18.20;90.90;;;;;;5075271;28;20404;-67
2021/08/26 03:06:26;;;;;;;2.30;2.20;;;17.80;91.00;;;;;;5074293;28;20059;-66
2021/08/26 03:08:53;;;;;;;3.13;3.00;;;17.90;91.60;;;;;;5075510;28;20104;-65
2021/08/26 03:11:21;;;;;;;5.03;3.20;;;17.80;91.50;;;;;;5075190;28;20032;-65
2021/08/26 03:13:48;;;;;;;2.80;2.70;;;18.10;91.90;;;;;;5075104;28;20032;-65
2021/08/26 03:16:15;;;;;;;2.42;2.20;;;18.10;91.50;;;;;;5075221;28;20460;-66
2021/08/26 03:18:43;;;;;;;2.60;2.40;;;18.50;91.70;;;;;;5075310;28;20016;-66
2021/08/26 03:21:10;;;;;;;2.90;2.70;;;18.50;90.50;;;;;;5073732;28;20024;-66
2021/08/26 03:23:37;;;;;;;2.90;2.70;;;18.40;91.30;;;;;;5074900;28;20024;-66
2021/08/26 03:26:05;;;;;;;2.80;2.70;;;18.40;90.90;;;;;;5073619;28;20085;-66
2021/08/26 03:28:32;;;;;;;2.70;2.60;;;18.20;90.60;;;;;;5074842;28;20100;-66
2021/08/26 03:30:59;;;;;;;2.67;2.58;;;18.20;91.50;;;;;;5074818;28;20028;-66
2021/08/26 03:33:27;;;;;;;2.80;2.60;;;18.10;90.70;;;;;;5074808;28;20028;-67
2021/08/26 03:35:54;;;;;;;2.45;2.38;;;18.00;90.70;;;;;;5074747;28;20031;-66
2021/08/26 03:38:21;;;;;;;2.50;2.40;;;17.90;91.80;;;;;;5074203;28;20023;-66
2021/08/26 03:40:49;;;;;;;2.70;2.50;;;17.80;91.00;;;;;;5074691;28;20029;-67
2021/08/26 03:43:16;;;;;;;2.45;2.35;;;17.70;91.50;;;;;;5074665;28;20019;-67
2021/08/26 03:45:44;;;;;;;2.95;2.40;;;17.60;91.50;;;;;;5074459;28;20094;-67
2021/08/26 03:48:11;;;;;;;2.55;2.45;;;17.40;92.20;;;;;;5074463;28;20021;-68
2021/08/26 03:50:38;;;;;;;2.83;2.10;;;17.30;91.70;;;;;;5073490;28;20518;-68
2021/08/26 03:53:06;;;;;;;2.75;2.60;;;17.10;92.80;;;;;;5074366;28;20024;-67
2021/08/26 03:55:33;;;;;;;2.50;2.40;;;17.00;92.40;;;;;;5074288;28;20051;-66
2021/08/26 03:58:00;;;;;;;2.65;2.55;;;17.10;92.80;;;;;;5074162;28;20040;-67
2021/08/26 04:00:27;;;;;;;2.92;2.72;;;17.20;92.70;;;;;;5074166;28;20384;-66
2021/08/26 04:02:55;;;;;;;2.92;2.80;;;17.20;92.30;;;;;;5074084;28;20012;-67
2021/08/26 04:05:22;;;;;;;2.88;2.72;;;17.30;92.50;;;;;;5074226;28;20481;-66
2021/08/26 04:07:49;;;;;;;3.15;2.95;;;17.30;92.30;;;;;;5074275;28;20020;-66
2021/08/26 04:10:17;;;;;;;3.00;2.80;;;17.50;91.80;;;;;;5074165;28;20546;-66
2021/08/26 04:12:44;;;;;;;2.70;2.60;;;17.60;92.30;;;;;;5074091;28;20032;-66
2021/08/26 04:15:12;;;;;;;2.90;2.80;;;17.90;91.90;;;;;;5073940;28;20051;-67
2021/08/26 04:17:39;;;;;;;3.00;2.80;;;18.20;92.30;;;;;;5072684;28;20040;-67
2021/08/26 04:20:07;;;;;;;3.42;3.17;;;18.30;91.50;;;;;;5073976;28;20016;-67
2021/08/26 04:22:34;;;;;;;3.00;2.70;;;18.40;91.30;;;;;;5074054;28;20024;-65
2021/08/26 04:25:02;;;;;;;3.03;2.83;;;18.30;91.10;;;;;;5072666;28;20075;-66
2021/08/26 04:27:29;;;;;;;2.92;2.83;;;18.50;91.50;;;;;;5073931;28;20021;-65
2021/08/26 04:29:56;;;;;;;3.60;3.30;;;18.50;91.80;;;;;;5073660;28;20389;-66
2021/08/26 04:32:24;;;;;;;3.60;3.40;;;18.60;91.60;;;;;;5073825;28;20029;-66
2021/08/26 04:34:51;;;;;;;3.67;3.35;;;18.40;92.00;;;;;;5073731;28;20033;-67
2021/08/26 04:37:18;;;;;;;3.40;3.10;;;18.50;91.70;;;;;;5073506;28;20024;-66
2021/08/26 04:39:46;;;;;;;3.35;3.08;;;18.30;92.00;;;;;;5072644;28;20027;-66
2021/08/26 04:42:13;;;;;;;4.05;3.08;;;18.30;92.40;;;;;;5073552;28;20020;-66
2021/08/26 04:44:41;;;;;;;2.90;2.80;;;18.20;91.90;;;;;;5073447;28;20021;-66
2021/08/26 04:47:09;;;;;;;3.20;3.00;;;18.10;92.50;;;;;;5073573;28;20067;-67
2021/08/26 04:49:36;;;;;;;3.20;3.00;;;18.10;93.10;;;;;;5073400;28;20044;-67
2021/08/26 04:52:04;;;;;;;3.25;2.90;;;18.10;93.00;;;;;;5072055;28;20063;-67
2021/08/26 04:54:32;;;;;;;3.33;2.85;;;18.10;93.80;;;;;;5073435;28;20024;-67
2021/08/26 04:56:59;;;;;;;3.80;2.80;;;18.00;94.20;;;;;;5073108;28;20056;-67
2021/08/26 04:59:27;;;;;;;3.17;2.97;;;18.00;95.00;;;;;;5073197;28;20016;-66
2021/08/26 05:01:54;;;;;;;3.28;2.90;;;18.00;94.40;;;;;;5073231;28;20055;-67
2021/08/26 05:04:23;;;;;;;4.07;2.50;;;18.00;94.30;;;;;;5073161;28;20389;-67
2021/08/26 05:06:52;;;;;;;2.83;2.60;;;18.00;94.50;;;;;;5071857;28;20034;-67
2021/08/26 05:09:20;;;;;;;5.05;2.60;;;17.80;94.50;;;;;;5073020;28;20020;-67
2021/08/26 05:11:48;;;;;;;4.07;2.90;;;17.60;95.10;;;;;;5073060;28;20052;-67
2021/08/26 05:14:15;;;;;;;4.40;2.80;;;17.60;95.30;;;;;;5071498;28;20131;-67
2021/08/26 05:16:45;;;;;;;3.08;2.70;;;17.60;95.00;;;;;;5072742;28;20371;-67
2021/08/26 05:19:13;;;;;;;4.22;3.00;;;17.60;94.70;;;;;;5072902;28;20102;-67
2021/08/26 05:21:40;;;;;;;4.82;2.80;;;17.70;94.90;;;;;;5072796;28;20040;-67
2021/08/26 05:24:07;;;;;;;4.72;2.55;;;17.90;95.00;;;;;;5071431;28;20020;-67
2021/08/26 05:26:35;;;;;;;5.30;2.90;;;17.90;94.90;;;;;;5072975;28;20035;-68
2021/08/26 05:29:02;;;;;;;3.25;2.70;;;17.80;94.80;;;;;;5072743;28;20473;-67
2021/08/26 05:31:29;;;;;;;3.05;2.67;;;17.80;94.00;;;;;;5072838;28;20027;-67
2021/08/26 05:33:57;;;;;;;4.68;2.80;;;17.80;94.60;;;;;;5073014;28;20035;-67
2021/08/26 05:36:24;;;;;;;2.60;2.40;;;17.90;94.20;;;;;;5072659;28;20052;-67
2021/08/26 05:38:52;;;;;;;2.33;2.20;;;17.50;94.90;;;;;;5072730;28;20017;-67
2021/08/26 05:41:19;;;;;;;2.85;2.50;;;17.40;94.90;;;;;;5072761;28;20021;-67
2021/08/26 05:43:47;;;;;;;3.25;2.28;;;17.20;95.30;;;;;;5072793;28;20020;-67
2021/08/26 05:46:14;;;;;;;3.80;2.38;;;17.20;95.30;;;;;;5072624;28;20534;-67
2021/08/26 05:48:41;;;;;;;3.20;2.90;;;17.30;95.50;;;;;;5072707;28;20024;-67
2021/08/26 05:51:09;;;;;;;3.33;2.70;;;17.40;95.20;;;;;;5071446;28;20059;-67
2021/08/26 05:53:36;;;;;;;3.47;2.60;;;17.50;94.70;;;;;;5072601;28;20024;-67
2021/08/26 05:56:04;;;;;;;3.45;2.67;;;17.60;94.60;;;;;;5071186;28;20020;-67
2021/08/26 05:58:31;;;;;;;2.88;2.20;;;17.70;95.20;;;;;;5072512;28;20462;-66
2021/08/26 06:00:59;;;;;;;2.60;2.40;;;17.70;95.50;;;;;;5074105;28;20021;-66
2021/08/26 06:03:26;;;;;;;3.70;2.40;;;17.60;95.30;;;;;;5076741;28;20032;-67
2021/08/26 06:05:53;;;;;;;2.97;2.70;;;17.60;95.00;;;;;;5076483;28;20021;-67
2021/08/26 06:08:26;;;;;;;3.10;2.80;;;17.50;94.90;;;;;;5076540;28;20021;-68
2021/08/26 06:10:54;;;;;;;3.92;3.10;;;17.40;95.00;;;;;;5075119;28;20031;-68
2021/08/26 06:13:21;;;;;;;3.60;2.83;;;17.30;95.50;;;;;;5076135;28;20024;-68
2021/08/26 06:15:49;;;;;;;5.50;2.78;;;17.10;96.20;;;;;;5075069;28;20028;-69
2021/08/26 06:18:17;;;;;;;3.10;2.40;;;16.90;96.20;;;;;;5074935;28;20042;-69
2021/08/26 06:20:45;;;;;;;5.07;2.72;;;16.80;96.50;;;;;;5076101;28;20104;-69
2021/08/26 06:23:12;;;;;;;2.83;2.63;;;16.60;96.80;;;;;;5076623;28;20020;-68
2021/08/26 06:25:39;;;;;;;3.17;2.83;;;16.50;97.40;;;;;;5076130;28;20067;-69
2021/08/26 06:28:07;;;;;;;2.90;2.65;;;16.40;97.30;;;;;;5076188;28;20107;-69
2021/08/26 06:30:34;;;;;;;3.35;2.70;;;16.20;97.30;;;;;;5075026;28;20032;-69
2021/08/26 06:33:01;;;;;;;3.30;2.70;;;16.10;97.60;;;;;;5076099;28;20362;-68
2021/08/26 06:35:29;;;;;;;5.35;2.53;;;16.00;97.80;;;;;;5075999;28;20077;-68
2021/08/26 06:37:56;;;;;;;3.45;3.03;;;15.90;97.70;;;;;;5076006;28;20031;-68
2021/08/26 06:40:24;;;;;;;3.78;3.17;;;15.90;97.80;;;;;;5074731;28;20024;-68
2021/08/26 06:42:51;;;;;;;3.13;2.85;;;15.80;98.30;;;;;;5076104;28;20024;-68
2021/08/26 06:45:18;;;;;;;4.45;3.03;;;15.80;98.50;;;;;;5075889;28;20016;-68
2021/08/26 06:47:46;;;;;;;4.30;2.88;;;15.80;98.60;;;;;;5075870;28;20021;-68
2021/08/26 06:50:13;;;;;;;3.58;2.90;;;15.80;98.70;;;;;;5075726;28;20362;-67
2021/08/26 06:52:40;;;;;;;4.10;2.70;;;15.80;99.60;;;;;;5075797;28;20025;-69
2021/08/26 06:55:08;;;;;;;2.80;2.60;;;15.70;99.30;;;;;;5075855;28;20017;-69
2021/08/26 06:57:36;;;;;;;2.95;2.70;;;15.70;99.60;;;;;;5074408;28;20062;-70
2021/08/26 07:00:07;;;;;;;5.13;3.03;;;15.70;99.60;;;;;;5074269;28;20481;-70
2021/08/26 07:02:35;;;;;;;4.05;2.80;;;15.60;99.70;;;;;;5075677;28;20099;-68
2021/08/26 07:05:03;;;;;;;3.72;2.40;;;15.60;99.70;;;;;;5075521;28;20020;-68
2021/08/26 07:07:30;;;;;;;3.83;2.92;;;15.60;99.80;;;;;;5075487;28;20432;-68
2021/08/26 07:09:59;;;;;;;3.97;2.30;;;15.50;99.90;;;;;;5075492;28;20020;-69
2021/08/26 07:12:32;;;;;;;3.78;2.03;;;15.40;99.90;;;;;;5074120;28;20048;-68
2021/08/26 07:15:00;;;;;;;2.85;2.50;;;15.30;99.90;;;;;;5075293;28;20040;-68
2021/08/26 07:17:28;;;;;;;3.78;2.53;;;15.20;99.90;;;;;;5075284;28;20107;-68
2021/08/26 07:19:55;;;;;;;3.03;2.72;;;15.20;99.90;;;;;;5075337;28;20013;-68
2021/08/26 07:22:23;;;;;;;3.03;2.80;;;15.10;99.90;;;;;;5075185;28;20027;-69
2021/08/26 07:24:50;;;;;;;4.20;2.80;;;15.00;99.90;;;;;;5075150;28;20029;-68
2021/08/26 07:27:17;;;;;;;3.35;3.05;;;14.90;99.90;;;;;;5075104;28;20562;-68
2021/08/26 07:29:45;;;;;;;3.75;2.78;;;14.80;99.90;;;;;;5075184;28;20385;-69
2021/08/26 07:32:12;;;;;;;3.20;2.90;;;14.80;99.90;;;;;;5074956;28;20031;-68
2021/08/26 07:34:40;;;;;;;2.90;2.80;;;14.70;99.90;;;;;;5074941;28;20540;-69
2021/08/26 07:37:07;;;;;;;3.00;2.70;;;14.70;99.90;;;;;;5074797;28;20106;-68
2021/08/26 07:39:34;;;;;;;3.30;3.00;;;14.60;99.90;;;;;;5074912;28;20130;-67
2021/08/26 07:42:02;;;;;;;3.60;2.90;;;14.60;99.90;;;;;;5073310;28;20460;-68
2021/08/26 07:44:29;;;;;;;7.55;3.30;;;14.50;99.90;;;;;;5074882;28;20052;-68
2021/08/26 07:46:57;;;;;;;4.53;3.90;;;14.50;99.90;;;;;;5074600;28;20094;-67
2021/08/26 07:49:24;;;;;;;6.63;4.40;;;14.40;99.90;;;;;;5074552;28;20425;-67
2021/08/26 07:51:51;;;;;;;5.38;3.83;;;14.40;99.90;;;;;;5074436;28;20111;-68
2021/08/26 07:54:19;;;;;;;3.67;3.08;;;14.30;99.90;;;;;;5073255;28;20570;-68
2021/08/26 07:56:46;;;;;;;3.63;3.28;;;14.20;99.90;;;;;;5072881;28;20035;-65
2021/08/26 07:59:13;;;;;;;5.80;3.15;;;14.20;99.90;;;;;;5074292;28;20039;-65
2021/08/26 08:01:41;;;;;;;5.50;3.20;;;14.10;99.90;;;;;;5074188;28;20502;-66
2021/08/26 08:04:08;;;;;;;6.07;2.72;;;14.10;99.90;;;;;;5074179;28;20020;-68
2021/08/26 08:06:35;;;;;;;5.57;3.10;;;14.10;99.90;;;;;;5074233;28;20017;-67
2021/08/26 08:09:03;;;;;;;5.25;3.30;;;14.20;99.90;;;;;;5074059;28;20066;-69
2021/08/26 08:11:30;;;;;;;8.50;3.08;;;14.10;99.90;;;;;;5072644;28;20040;-67
2021/08/26 08:13:57;;;;;;;5.28;2.90;;;14.10;99.90;;;;;;5073777;28;20056;-67
2021/08/26 08:16:25;;;;;;;3.28;2.47;;;14.10;99.90;;;;;;5073917;28;20078;-66
2021/08/26 08:18:52;;;;;;;3.85;3.00;;;14.10;99.90;;;;;;5073718;28;20085;-66
2021/08/26 08:21:20;;;;;;;4.25;2.90;;;14.00;99.90;;;;;;5073875;28;20423;-66
2021/08/26 08:23:47;;;;;;;4.93;3.08;;;13.90;99.90;;;;;;5073458;28;20024;-66
2021/08/26 08:26:14;;;;;;;6.75;2.80;;;13.90;99.90;;;;;;5073708;28;20017;-66
2021/08/26 08:28:42;;;;;;;6.50;4.47;;;13.90;99.90;;;;;;5073841;28;20059;-66
2021/08/26 08:31:09;;;;;;;5.22;3.05;;;13.90;99.90;;;;;;5073586;28;20024;-67
2021/08/26 08:33:38;;;;;;;5.47;3.95;;;13.90;99.90;;;;;;5072143;28;20127;-66
2021/08/26 08:36:06;;;;;;;5.05;3.70;;;13.80;99.90;;;;;;5073529;28;20086;-66
2021/08/26 08:38:34;;;;;;;6.75;4.00;;;13.80;99.90;;;;;;5072248;28;20024;-66
2021/08/26 08:41:02;;;;;;;6.07;4.00;;;13.70;99.90;;;;;;5073548;28;20103;-66
2021/08/26 08:43:29;;;;;;;10.30;4.20;;;13.70;99.90;;;;;;5073616;28;20096;-68
2021/08/26 08:45:57;;;;;;;6.43;4.00;;;13.60;99.90;;;;;;5073529;28;20103;-68
2021/08/26 08:48:27;;;;;;;5.30;3.60;;;13.60;99.90;;;;;;5073385;28;20392;-68
2021/08/26 08:50:58;;;;;;;11.25;4.57;;;13.50;99.90;;;;;;5073471;28;20045;-68
2021/08/26 08:53:26;;;;;;;4.53;3.67;;;13.50;99.90;;;;;;5073360;28;20037;-68
2021/08/26 08:55:53;;;;;;;9.25;4.60;;;13.50;99.90;;;;;;5072047;28;20546;-68
2021/08/26 08:58:21;;;;;;;6.32;4.80;;;13.50;99.90;;;;;;5073337;28;20029;-68
2021/08/26 09:00:48;;;;;;;7.28;3.90;;;13.40;99.90;;;;;;5073247;28;20392;-69
2021/08/26 09:03:16;;;;;;;11.82;5.55;;;13.40;99.90;;;;;;5073264;28;20465;-68
2021/08/26 09:06:03;;;;;;;7.75;3.75;;;13.40;99.90;;;;;;5071958;28;20020;-68
2021/08/26 09:08:33;;;;;;;6.50;3.58;;;13.30;99.90;;;;;;5073369;28;20060;-68
2021/08/26 09:11:17;;;;;;;7.68;3.70;;;13.30;99.90;;;;;;5071795;28;20119;-68
2021/08/26 09:13:46;;;;;;;7.45;3.95;;;13.20;99.90;;;;;;5072949;28;20087;-68
2021/08/26 09:16:14;;;;;;;7.65;4.28;;;13.20;99.90;;;;;;5072955;28;20032;-68
2021/08/26 09:18:41;;;;;;;8.15;5.03;;;13.10;99.90;;;;;;5071747;28;20385;-68
2021/08/26 09:21:11;;;;;;;11.60;6.20;;;13.00;99.90;;;;;;5073053;28;20354;-68
2021/08/26 09:24:00;;;;;;;8.27;5.55;;;13.00;99.90;;;;;;5072148;28;20074;-69
2021/08/26 09:26:29;;;;;;;13.55;7.50;;;13.00;99.90;;;;;;5073095;28;20112;-68
2021/08/26 09:29:03;;;;;;;11.10;5.57;;;12.90;99.90;;;;;;5073019;28;20505;-68
2021/08/26 09:31:32;;;;;;;8.98;5.13;;;12.80;99.90;;;;;;5072950;28;20098;-68
2021/08/26 09:34:02;;;;;;;9.48;5.22;;;12.80;99.90;;;;;;5073009;28;20017;-67
2021/08/26 09:36:31;;;;;;;8.13;5.35;;;12.80;99.90;;;;;;5072048;28;20021;-67
2021/08/26 09:39:02;;;;;;;7.07;4.45;;;12.70;99.90;;;;;;5073010;28;20060;-67
2021/08/26 09:41:41;;;;;;;;;;;12.70;99.90;;;;;;5073399;28;20021;-67
2021/08/26 09:44:17;;;;;;;7.95;4.85;;;12.70;99.90;;;;;;5071631;28;19991;-67
2021/08/26 09:46:48;;;;;;;8.77;5.78;;;12.60;99.90;;;;;;5072983;28;20539;-67
2021/08/26 09:49:26;;;;;;;10.65;5.40;;;12.60;99.90;;;;;;5071517;28;20385;-67
2021/08/26 09:52:09;;;;;;;14.82;5.80;;;12.60;99.90;;;;;;5071401;28;20093;-67
2021/08/26 09:54:42;;;;;;;9.80;5.38;;;12.50;99.90;;;;;;5072439;28;20029;-67
2021/08/26 09:57:30;;;;;;;9.73;4.95;;;12.50;99.90;;;;;;5072607;28;20477;-65
2021/08/26 10:00:01;;;;;;;14.98;6.70;;;12.50;99.90;;;;;;5071159;28;20066;-67
2021/08/26 10:02:29;;;;;;;;;;;12.40;99.90;;;;;;5071839;28;20481;-66
2021/08/26 10:04:57;;;;;;;9.98;6.25;;;12.40;99.90;;;;;;5071256;28;19927;-65
2021/08/26 10:07:28;;;;;;;8.73;5.93;;;12.30;99.90;;;;;;5072588;28;20433;-66
2021/08/26 10:09:56;;;;;;;10.27;6.45;;;12.30;99.90;;;;;;5072591;28;20035;-66
2021/08/26 10:12:24;;;;;;;11.55;6.80;;;12.30;99.90;;;;;;5071063;28;20036;-66
2021/08/26 10:14:53;;;;;;;14.57;7.10;;;12.20;99.90;;;;;;5072339;28;20086;-67
2021/08/26 10:17:21;;;;;;;8.23;6.70;;;12.20;99.90;;;;;;5072383;28;20028;-66
2021/08/26 10:19:50;;;;;;;10.25;6.47;;;12.10;99.90;;;;;;5072465;28;20498;-66
2021/08/26 10:22:17;;;;;;;8.98;6.18;;;12.10;99.90;;;;;;5072502;28;20012;-66
2021/08/26 10:24:45;;;;;;;8.05;6.28;;;12.10;99.90;;;;;;5072455;28;20016;-66
2021/08/26 10:27:17;;;;;;;8.00;6.03;;;12.10;99.90;;;;;;5072346;28;20099;-66
2021/08/26 10:29:49;;;;;;;9.38;6.55;;;12.00;99.90;;;;;;5072566;28;20043;-65
2021/08/26 10:32:20;;;;;;;10.18;6.88;;;12.00;99.90;;;;;;5072334;28;20473;-66
2021/08/26 10:35:05;;;;;;;;;;;12.00;99.90;;;;;;5071685;28;20031;-65
2021/08/26 10:37:54;;;;;;;8.98;6.43;;;12.00;99.90;;;;;;5072273;28;19967;-68
2021/08/26 10:40:36;;;;;;;8.88;7.00;;;11.90;99.90;;;;;;5072363;28;20393;-65
2021/08/26 10:43:05;;;;;;;8.38;6.85;;;11.90;99.90;;;;;;5071040;28;20086;-65
2021/08/26 10:45:51;;;;;;;8.10;7.30;;;11.90;99.90;;;;;;5072255;28;20104;-63
2021/08/26 10:48:25;;;;;;;10.85;7.38;;;11.90;99.90;;;;;;5075404;28;20441;-64
2021/08/26 10:51:14;;;;;;;9.38;7.32;;;12.00;99.90;;;;;;5075595;28;20024;-63
2021/08/26 10:53:46;;;;;;;14.00;8.25;;;12.00;99.90;;;;;;5075803;28;20381;-64
2021/08/26 10:56:21;;;;;;;9.60;7.50;;;12.10;99.90;;;;;;5075462;28;20023;-64
2021/08/26 10:58:53;;;;;;;9.77;7.00;;;12.00;99.90;;;;;;5075343;28;20082;-64
2021/08/26 11:01:29;;;;;;;11.02;7.85;;;12.10;99.90;;;;;;5075457;28;20029;-64
2021/08/26 11:04:20;;;;;;;8.07;7.38;;;12.10;99.90;;;;;;5074196;28;20029;-64
2021/08/26 11:06:49;;;;;;;10.15;7.78;;;12.10;99.90;;;;;;5075465;28;20032;-65
2021/08/26 11:09:24;;;;;;;10.65;8.20;;;12.10;99.90;;;;;;5075471;28;20025;-65
2021/08/26 11:11:58;;;;;;;8.93;8.00;;;12.10;99.90;;;;;;5075313;28;20021;-65
2021/08/26 11:14:27;;;;;;;8.52;7.80;;;12.00;99.90;;;;;;5074907;28;20041;-65
2021/08/26 11:16:59;;;;;;;8.30;7.70;;;12.00;99.90;;;;;;5075156;28;20036;-66
2021/08/26 11:19:30;;;;;;;12.05;9.25;;;12.00;99.90;;;;;;5073827;28;20021;-65
2021/08/26 11:21:58;;;;;;;8.35;7.53;;;12.00;99.90;;;;;;5075154;28;20020;-65
2021/08/26 11:24:27;;;;;;;8.32;7.50;;;11.90;99.90;;;;;;5075332;28;20029;-63
2021/08/26 11:26:54;;;;;;;10.10;7.75;;;11.90;99.90;;;;;;5074904;28;20027;-65
2021/08/26 11:29:21;;;;;;;8.32;7.20;;;11.80;99.90;;;;;;5074790;28;20077;-66
2021/08/26 11:31:55;;;;;;;11.43;8.23;;;11.80;99.90;;;;;;5074982;28;20113;-65
2021/08/26 11:34:38;;;;;;;9.00;8.30;;;11.70;99.90;;;;;;5074789;28;20056;-65
2021/08/26 11:37:09;;;;;;;9.00;8.20;;;11.70;99.90;;;;;;5073368;28;20074;-65
2021/08/26 11:39:47;;;;;;;8.80;8.02;;;11.70;99.90;;;;;;5074934;28;20020;-65
2021/08/26 11:42:37;;;;;;;9.48;8.55;;;11.60;99.90;;;;;;5074724;28;20021;-65
2021/08/26 11:45:14;;;;;;;10.00;9.02;;;11.60;99.90;;;;;;5074748;28;20017;-64
2021/08/26 11:47:45;;;;;;;9.88;9.00;;;11.60;99.90;;;;;;5074594;28;20104;-64
2021/08/26 11:50:23;;;;;;;9.88;8.88;;;11.50;99.90;;;;;;5074605;28;20020;-64
2021/08/26 11:52:53;;;;;;;8.98;8.38;;;11.60;99.90;;;;;;5074639;28;20103;-64
2021/08/26 11:55:22;;;;;;;9.43;8.47;;;11.60;99.90;;;;;;5074539;28;20077;-63
2021/08/26 11:57:58;;;;;;;10.27;8.27;;;11.50;99.90;;;;;;5073881;28;20020;-66
2021/08/26 12:00:26;;;;;;;9.07;8.20;;;11.50;99.90;;;;;;5074270;28;20048;-63
2021/08/26 12:02:55;;;;;;;9.77;8.80;;;11.50;99.90;;;;;;5074274;28;20020;-64
2021/08/26 12:05:23;;;;;;;9.73;8.73;;;11.50;99.90;;;;;;5072862;28;20085;-65
2021/08/26 12:07:53;;;;;;;9.55;8.65;;;11.50;99.90;;;;;;5072803;28;20111;-64
2021/08/26 12:10:24;;;;;;;9.02;8.10;;;11.50;99.90;;;;;;5074165;28;20074;-64
2021/08/26 12:13:15;;;;;;;7.63;6.88;;;11.40;99.90;;;;;;5074148;28;20024;-64
2021/08/26 12:15:53;;;;;;;8.77;7.07;;;11.50;99.90;;;;;;5073906;28;20565;-64
2021/08/26 12:18:26;;;;;;;8.23;7.43;;;11.50;99.90;;;;;;5073984;28;20033;-64
2021/08/26 12:20:57;;;;;;;8.40;7.68;;;11.50;99.90;;;;;;5074248;28;20076;-64
2021/08/26 12:23:28;;;;;;;10.10;8.77;;;11.50;99.90;;;;;;5073982;28;20082;-64
2021/08/26 12:26:14;;;;;;;8.18;7.38;;;11.50;99.90;;;;;;5073910;28;20044;-65
2021/08/26 12:28:56;;;;;;;10.32;8.85;;;11.40;99.90;;;;;;5073681;28;20059;-65
2021/08/26 12:31:23;;;;;;;9.27;8.38;;;11.40;99.90;;;;;;5073591;28;20029;-65
2021/08/26 12:34:03;;;;;;;9.30;8.32;;;11.50;99.90;;;;;;5072320;28;20492;-64
2021/08/26 12:36:35;;;;;;;8.65;7.85;;;11.60;99.90;;;;;;5073534;28;20056;-64
2021/08/26 12:39:02;;;;;;;9.23;8.27;;;11.60;99.90;;;;;;5073537;28;20384;-64
2021/08/26 12:41:30;;;;;;;9.93;7.90;;;11.70;99.90;;;;;;5072302;28;20024;-64
2021/08/26 12:43:59;;;;;;;8.70;7.80;;;11.70;99.90;;;;;;5072272;28;20017;-65
2021/08/26 12:46:32;;;;;;;8.70;7.70;;;11.70;99.90;;;;;;5073441;28;20046;-65
2021/08/26 12:49:11;;;;;;;9.05;8.25;;;11.70;99.90;;;;;;5072710;28;20055;-64
2021/08/26 12:52:01;;;;;;;8.30;7.10;;;11.60;99.90;;;;;;5072273;28;20024;-64
2021/08/26 12:54:28;;;;;;;8.65;7.78;;;11.60;99.90;;;;;;5073253;28;20024;-65
2021/08/26 12:56:57;;;;;;;8.82;7.93;;;11.60;99.90;;;;;;5073179;28;20435;-65
2021/08/26 12:59:41;;;;;;;10.07;8.00;;;11.50;99.90;;;;;;5073061;28;20500;-65
2021/08/26 13:02:11;;;;;;;8.52;7.70;;;11.50;99.90;;;;;;5073091;28;20367;-65
2021/08/26 13:04:40;;;;;;;9.55;8.63;;;11.40;99.90;;;;;;5071914;28;20024;-65